Philadelphia, Pennsylvania
Traffic Map
Current Weather Conditions
Philadelphia, Pennsylvania
Scattered Clouds
Scattered Clouds
58°
Feels Like: 58°
Wind Chill: 58° Ceiling: Unl
Heat Index: 58° Visibility: 10mi
Dew Point: 50° Wind: 0mph
Humidity: 75% Direction: ° ()
Pressure: 29.89in Gusts: 0mph
Raw Report DataKPHL 211354Z 00000KT 10SM FEW065 SCT120 14/10 A2989 RMK AO2 SLP121 T01440100
Traffic Incident Summary
Active as of:
Severity:
Category:
InformationThere was an issue retrieving the traffic information for this location. Please try a different location or try again shortly.
Advertisements
Track Severe Weather on mobile